createdAt,value
2022-09-14T00:00:42.705Z,82.7
2022-09-14T00:01:52.822Z,83.3
2022-09-14T00:03:02.944Z,82.8
2022-09-14T00:04:13.049Z,82.9
2022-09-14T00:05:23.185Z,82.9
2022-09-14T00:06:33.286Z,83.3
2022-09-14T00:07:43.408Z,83.5
2022-09-14T00:08:53.773Z,83
2022-09-14T00:10:03.643Z,83
2022-09-14T00:11:13.764Z,83
2022-09-14T00:12:23.888Z,83
2022-09-14T00:13:33.988Z,82.8
2022-09-14T00:14:43.127Z,83
2022-09-14T00:15:53.255Z,83.4
2022-09-14T00:17:03.371Z,83.3
2022-09-14T00:18:13.742Z,82.9
2022-09-14T00:19:23.610Z,82.8
2022-09-14T00:20:33.714Z,83.1
2022-09-14T00:21:43.838Z,83.4
2022-09-14T00:22:53.962Z,83.2
2022-09-14T00:24:04.081Z,83.5
2022-09-14T00:25:14.185Z,83.8
2022-09-14T00:26:24.299Z,83.7
2022-09-14T00:27:34.423Z,83.5
2022-09-14T00:28:44.548Z,84.2
2022-09-14T00:29:53.684Z,83.5
2022-09-14T00:31:03.800Z,84
2022-09-14T00:32:13.903Z,83.5
2022-09-14T00:33:24.024Z,83.2
2022-09-14T00:34:34.150Z,83
2022-09-14T00:35:44.267Z,82.9
2022-09-14T00:36:54.378Z,82.8
2022-09-14T00:38:04.497Z,83
2022-09-14T00:39:14.617Z,83.1
2022-09-14T00:40:24.984Z,83.4
2022-09-14T00:41:34.846Z,83.2
2022-09-14T00:42:44.967Z,83.5
2022-09-14T00:43:55.337Z,83.5
2022-09-14T00:45:04.211Z,83.3
2022-09-14T00:46:14.334Z,83.2
2022-09-14T00:47:24.457Z,83.4
2022-09-14T00:48:34.577Z,83.2
2022-09-14T00:49:44.690Z,83.8
2022-09-14T00:50:54.795Z,83.2
2022-09-14T00:52:04.932Z,83.1
2022-09-14T00:53:15.039Z,82.9
2022-09-14T00:54:25.164Z,83.4
2022-09-14T00:55:35.273Z,83.2
2022-09-14T00:56:45.396Z,83.7
2022-09-14T00:57:55.515Z,83.1
2022-09-14T00:59:05.627Z,83.1
2022-09-14T01:00:14.761Z,83.1
2022-09-14T01:01:24.883Z,83
2022-09-14T01:02:34.997Z,83.6
2022-09-14T01:03:45.113Z,83.3
2022-09-14T01:04:55.223Z,83.3
2022-09-14T01:06:05.354Z,83.3
2022-09-14T01:07:15.717Z,83.1
2022-09-14T01:08:25.588Z,83
2022-09-14T01:09:35.709Z,82.8
2022-09-14T01:10:45.825Z,82.8
2022-09-14T01:11:55.928Z,83
2022-09-14T01:13:06.050Z,82.9
2022-09-14T01:14:16.172Z,83.3
2022-09-14T01:15:25.308Z,83.5
2022-09-14T01:16:35.428Z,84
2022-09-14T01:17:45.536Z,84.1
2022-09-14T01:18:55.661Z,83.7
2022-09-14T01:20:05.671Z,83.5
2022-09-14T01:21:15.891Z,83.4
2022-09-14T01:22:26.016Z,83.6
2022-09-14T01:23:36.120Z,83.4
2022-09-14T01:24:46.248Z,83.6
2022-09-14T01:25:56.357Z,83.4
2022-09-14T01:27:06.479Z,83.6
2022-09-14T01:28:16.593Z,83.4
2022-09-14T01:29:26.974Z,83.6
2022-09-14T01:30:35.856Z,83
2022-09-14T01:31:45.973Z,83.3
2022-09-14T01:32:56.084Z,83.3
2022-09-14T01:34:06.205Z,83.4
2022-09-14T01:35:16.311Z,83.8
2022-09-14T01:36:26.429Z,83.9
2022-09-14T01:37:36.550Z,84
2022-09-14T01:38:46.673Z,83.9
2022-09-14T01:39:56.796Z,84
2022-09-14T01:41:06.900Z,83.7
2022-09-14T01:42:17.021Z,84.1
2022-09-14T01:43:27.143Z,84
2022-09-14T01:44:37.261Z,83.7
2022-09-14T01:45:46.397Z,83.5
2022-09-14T01:46:56.502Z,84
2022-09-14T01:48:06.625Z,84.4
2022-09-14T01:49:16.748Z,84.7
2022-09-14T01:50:26.856Z,84.5
2022-09-14T01:51:36.972Z,84.6
2022-09-14T01:52:47.092Z,84.5
2022-09-14T01:53:57.207Z,84.4
2022-09-14T01:55:07.325Z,84.5
2022-09-14T01:56:17.448Z,84.4
2022-09-14T01:57:27.568Z,84.4
2022-09-14T01:58:37.680Z,83.9
2022-09-14T01:59:47.807Z,84
2022-09-14T02:00:56.945Z,83.9
2022-09-14T02:02:07.053Z,84.5
2022-09-14T02:03:17.167Z,84.3
2022-09-14T02:04:27.286Z,84.2
2022-09-14T02:05:37.407Z,84.6
2022-09-14T02:06:47.518Z,84.3
2022-09-14T02:07:57.640Z,84.3
2022-09-14T02:09:07.763Z,85.5
2022-09-14T02:10:18.125Z,84.7
2022-09-14T02:11:27.989Z,84.7
2022-09-14T02:12:38.104Z,84.7
2022-09-14T02:13:48.224Z,84.8
2022-09-14T02:14:58.351Z,85.1
2022-09-14T02:16:07.479Z,85.2
2022-09-14T02:17:17.605Z,85.5
2022-09-14T02:18:27.712Z,85.4
2022-09-14T02:19:37.834Z,85.8
2022-09-14T02:20:47.959Z,86
2022-09-14T02:21:58.064Z,85.9
2022-09-14T02:23:08.189Z,86
2022-09-14T02:24:18.296Z,86.7
2022-09-14T02:25:28.414Z,86.4
2022-09-14T02:26:38.528Z,86.6
2022-09-14T02:28:58.780Z,87.1
2022-09-14T02:30:08.882Z,87.4
2022-09-14T02:31:18.014Z,87.2
2022-09-14T02:32:28.132Z,88
2022-09-14T02:33:38.260Z,87.4
2022-09-14T02:34:48.379Z,87.6
2022-09-14T02:35:58.488Z,88
2022-09-14T02:37:08.610Z,88.7
2022-09-14T02:38:18.737Z,88
2022-09-14T02:39:28.841Z,87.6
2022-09-14T02:40:38.957Z,87.5
2022-09-14T02:42:59.196Z,86.8
2022-09-14T02:44:09.321Z,86.7
2022-09-14T02:45:19.427Z,86.7
2022-09-14T02:46:28.568Z,86.4
2022-09-14T02:47:38.692Z,86.2
2022-09-14T02:48:48.794Z,86
2022-09-14T02:49:58.911Z,86.1
2022-09-14T02:51:09.046Z,86.5
2022-09-14T02:52:19.147Z,86.8
2022-09-14T02:53:29.268Z,86.2
2022-09-14T02:54:39.392Z,85.9
2022-09-14T02:56:59.628Z,85.9
2022-09-14T02:58:09.735Z,85.9
2022-09-14T02:59:19.865Z,85.9
2022-09-14T03:00:29.983Z,86.2
2022-09-14T03:01:39.110Z,85.7
2022-09-14T03:02:49.234Z,85.6
2022-09-14T03:03:59.341Z,86
2022-09-14T03:05:09.460Z,86
2022-09-14T03:06:19.586Z,86.6
2022-09-14T03:07:29.706Z,86.1
2022-09-14T03:08:39.097Z,86.8
2022-09-14T03:10:59.077Z,86.8
2022-09-14T03:12:09.197Z,86.9
2022-09-14T03:13:19.562Z,87.1
2022-09-14T03:14:29.416Z,87.7
2022-09-14T03:15:39.551Z,87.2
2022-09-14T03:16:49.654Z,87.6
2022-09-14T03:17:59.777Z,87.1
2022-09-14T03:19:09.903Z,86.5
2022-09-14T03:20:20.018Z,87
2022-09-14T03:21:30.138Z,86.6
2022-09-14T03:22:40.243Z,87.1
2022-09-14T03:23:49.380Z,86.1
2022-09-14T03:24:59.506Z,85.9
2022-09-14T03:26:09.610Z,85.9
2022-09-14T03:27:19.734Z,85.5
2022-09-14T03:28:29.860Z,85.5
2022-09-14T03:29:40.216Z,85.5
2022-09-14T03:30:50.085Z,85.5
2022-09-14T03:32:00.457Z,85.4
2022-09-14T03:33:10.328Z,85.9
2022-09-14T03:34:20.437Z,85.6
2022-09-14T03:35:30.560Z,85.7
2022-09-14T03:36:40.672Z,86.1
2022-09-14T03:37:50.795Z,85.7
2022-09-14T03:38:59.916Z,85.8
2022-09-14T03:40:10.035Z,86.1
2022-09-14T03:41:20.409Z,86.2
2022-09-14T03:42:30.272Z,85.6
2022-09-14T03:43:40.639Z,85.8
2022-09-14T03:46:00.625Z,85.8
2022-09-14T03:47:10.743Z,85.8
2022-09-14T03:48:20.869Z,85.9
2022-09-14T03:49:30.983Z,86.4
2022-09-14T03:50:41.107Z,87.2
2022-09-14T03:53:01.330Z,86.9
2022-09-14T03:54:10.463Z,87.1
2022-09-14T03:55:20.582Z,87.3
2022-09-14T03:56:30.703Z,87.3
2022-09-14T03:57:40.821Z,87.4
2022-09-14T03:58:50.942Z,88.2
2022-09-14T04:00:01.048Z,87.5
2022-09-14T04:01:11.167Z,87.4
2022-09-14T04:02:21.289Z,87.5
2022-09-14T04:03:31.657Z,87.8
2022-09-14T04:04:41.524Z,88
2022-09-14T04:05:51.652Z,88.2
2022-09-14T04:07:01.772Z,88.5
2022-09-14T04:08:11.878Z,88.4
2022-09-14T04:09:21.020Z,88.4
2022-09-14T04:10:31.122Z,88.4
2022-09-14T04:11:41.244Z,88.5
2022-09-14T04:12:51.371Z,88.8
2022-09-14T04:14:01.478Z,88.8
2022-09-14T04:15:11.604Z,88.7
2022-09-14T04:16:21.720Z,88.2
2022-09-14T04:17:31.842Z,88.6
2022-09-14T04:18:41.957Z,88.6
2022-09-14T04:22:12.304Z,89
2022-09-14T04:23:22.415Z,89.5
2022-09-14T04:24:31.566Z,88.9
2022-09-14T04:25:41.676Z,89.7
2022-09-14T04:26:51.797Z,89.3
2022-09-14T04:28:01.000Z,89.4
2022-09-14T04:29:12.019Z,88.8
2022-09-14T04:30:22.153Z,88.7
2022-09-14T04:31:32.256Z,88.7
2022-09-14T04:32:42.377Z,88.8
2022-09-14T04:35:02.608Z,88.7
2022-09-14T04:36:11.757Z,89.5
2022-09-14T04:37:20.887Z,89.3
2022-09-14T04:38:31.011Z,89
2022-09-14T04:39:41.132Z,88.9
2022-09-14T04:40:51.236Z,88.9
2022-09-14T04:42:01.362Z,88.9
2022-09-14T04:43:11.483Z,89.2
2022-09-14T04:44:21.603Z,89.3
2022-09-14T04:45:31.709Z,89
2022-09-14T04:46:41.830Z,89.2
2022-09-14T04:47:51.948Z,88.9
2022-09-14T04:49:01.102Z,89
2022-09-14T04:50:10.234Z,89.1
2022-09-14T04:51:20.348Z,88.8
2022-09-14T04:52:30.469Z,89.3
2022-09-14T04:53:40.574Z,88.7
2022-09-14T04:54:50.701Z,88.9
2022-09-14T04:56:00.819Z,88.3
2022-09-14T04:57:10.940Z,87.5
2022-09-14T04:58:21.051Z,87.5
2022-09-14T04:59:31.164Z,87.7
2022-09-14T05:00:41.285Z,87.4
2022-09-14T05:01:51.412Z,86.8
2022-09-14T05:03:01.525Z,86.7
2022-09-14T05:04:11.642Z,87.6
2022-09-14T05:05:20.764Z,87.2
2022-09-14T05:06:30.889Z,86.8
2022-09-14T05:07:41.015Z,86.9
2022-09-14T05:08:51.120Z,87.5
2022-09-14T05:10:01.247Z,87.5
2022-09-14T05:11:11.360Z,86.3
2022-09-14T05:12:21.477Z,86.5
2022-09-14T05:13:31.840Z,86.5
2022-09-14T05:14:41.723Z,86.8
2022-09-14T05:15:51.830Z,86.1
2022-09-14T05:17:01.944Z,85.9
2022-09-14T05:18:12.064Z,86.4
2022-09-14T05:19:22.192Z,85.5
2022-09-14T05:20:31.318Z,86.1
2022-09-14T05:21:41.435Z,85.2
2022-09-14T05:22:51.560Z,85.1
2022-09-14T05:24:01.662Z,85.2
2022-09-14T05:25:11.791Z,85
2022-09-14T05:26:21.906Z,85.1
2022-09-14T05:27:32.030Z,84.8
2022-09-14T05:28:42.137Z,85.2
2022-09-14T05:29:52.256Z,84.5
2022-09-14T05:31:02.382Z,84.3
2022-09-14T05:32:12.502Z,84.6
2022-09-14T05:33:22.619Z,84.1
2022-09-14T05:34:32.724Z,84.5
2022-09-14T05:35:41.861Z,84.2
2022-09-14T05:36:51.988Z,84.4
2022-09-14T05:38:02.088Z,85.5
2022-09-14T05:39:12.205Z,85.2
2022-09-14T05:40:22.336Z,85.7
2022-09-14T05:41:32.452Z,85.7
2022-09-14T05:42:42.577Z,86.5
2022-09-14T05:43:52.676Z,86.5
2022-09-14T05:45:02.802Z,86.8
2022-09-14T05:46:12.919Z,87.5
2022-09-14T05:47:23.036Z,88
2022-09-14T05:48:33.160Z,87.2
2022-09-14T05:49:43.264Z,87.7
2022-09-14T05:50:52.400Z,88.4
2022-09-14T05:52:02.520Z,87
2022-09-14T05:53:12.643Z,86.8
2022-09-14T05:54:22.760Z,86.1
2022-09-14T05:55:32.879Z,86.5
2022-09-14T05:56:42.991Z,86.7
2022-09-14T05:57:53.120Z,87.4
2022-09-14T05:59:03.221Z,86.8
2022-09-14T06:00:13.345Z,87.5
2022-09-14T06:01:23.469Z,87.4
2022-09-14T06:02:33.573Z,87.7
2022-09-14T06:03:43.696Z,87.9
2022-09-14T06:06:03.938Z,88.1
2022-09-14T06:07:13.074Z,88.7
2022-09-14T06:08:23.177Z,89
2022-09-14T06:09:33.310Z,88.4
2022-09-14T06:10:43.420Z,88
2022-09-14T06:11:53.543Z,88
2022-09-14T06:13:03.663Z,88.1
2022-09-14T06:14:13.766Z,87.9
2022-09-14T06:15:23.893Z,88
2022-09-14T06:16:34.013Z,88.1
2022-09-14T06:17:44.117Z,88.1
2022-09-14T06:18:54.250Z,88.2
2022-09-14T06:20:04.367Z,88
2022-09-14T06:21:14.488Z,88.4
2022-09-14T06:22:23.619Z,88.2
2022-09-14T06:23:33.736Z,87.7
2022-09-14T06:24:43.854Z,87.7
2022-09-14T06:25:53.974Z,87.6
2022-09-14T06:27:04.073Z,87.9
2022-09-14T06:28:14.196Z,87.9
2022-09-14T06:29:24.317Z,87.3
2022-09-14T06:30:34.437Z,87.3
2022-09-14T06:31:44.562Z,87.1
2022-09-14T06:32:54.665Z,86.8
2022-09-14T06:34:04.792Z,86.7
2022-09-14T06:35:14.900Z,86.3
2022-09-14T06:36:25.028Z,85.9
2022-09-14T06:37:34.157Z,86.5
2022-09-14T06:38:44.265Z,85.8
2022-09-14T06:39:54.390Z,85.9
2022-09-14T06:41:04.512Z,85.9
2022-09-14T06:42:14.631Z,85.9
2022-09-14T06:43:24.735Z,85.3
2022-09-14T06:44:34.856Z,85.3
2022-09-14T06:45:44.985Z,85.1
2022-09-14T06:46:55.087Z,84.2
2022-09-14T06:48:05.217Z,83.8
2022-09-14T06:49:15.329Z,84.2
2022-09-14T06:50:25.450Z,82.3
2022-09-14T06:51:35.563Z,83.4
2022-09-14T06:52:44.694Z,84.5
2022-09-14T06:53:54.818Z,84.6
2022-09-14T06:55:04.939Z,84.4
2022-09-14T06:56:15.060Z,84.8
2022-09-14T06:57:25.160Z,85.3
2022-09-14T06:58:35.278Z,85
2022-09-14T06:59:45.403Z,85.5
2022-09-14T07:00:55.532Z,85.3
2022-09-14T07:02:05.650Z,85.9
2022-09-14T07:03:14.785Z,84.2
2022-09-14T07:04:24.894Z,84
2022-09-14T07:05:35.019Z,84.2
2022-09-14T07:06:45.132Z,83
2022-09-14T07:07:55.257Z,84
2022-09-14T07:09:05.364Z,83.1
2022-09-14T07:10:15.482Z,83.3
2022-09-14T07:11:25.844Z,83
2022-09-14T07:12:35.714Z,83.5
2022-09-14T07:13:45.831Z,83.8
2022-09-14T07:14:55.953Z,82.3
2022-09-14T07:16:06.070Z,82.6
2022-09-14T07:17:16.183Z,83
2022-09-14T07:18:25.315Z,81.6
2022-09-14T07:19:35.438Z,81.6
2022-09-14T07:20:45.559Z,82.4
2022-09-14T07:21:55.677Z,81.1
2022-09-14T07:23:05.796Z,81.1
2022-09-14T07:24:15.911Z,81.8
2022-09-14T07:25:26.038Z,80.9
2022-09-14T07:26:36.138Z,81
2022-09-14T07:27:46.265Z,81.1
2022-09-14T07:28:56.386Z,80.2
2022-09-14T07:30:06.493Z,80.9
2022-09-14T07:31:16.614Z,83.5
2022-09-14T07:32:26.727Z,82.7
2022-09-14T07:33:35.876Z,81.7
2022-09-14T07:34:45.984Z,82.3
2022-09-14T07:35:56.106Z,81.7
2022-09-14T07:37:06.221Z,81.8
2022-09-14T07:38:16.343Z,82.4
2022-09-14T07:39:26.453Z,82.4
2022-09-14T07:40:36.578Z,81.9
2022-09-14T07:41:46.700Z,81.8
2022-09-14T07:42:56.819Z,82.5
2022-09-14T07:44:06.938Z,80
2022-09-14T07:45:17.041Z,79.6
2022-09-14T07:46:27.163Z,82
2022-09-14T07:47:37.279Z,81.3
2022-09-14T07:48:46.416Z,81.5
2022-09-14T07:49:56.532Z,81.6
2022-09-14T07:51:06.896Z,80
2022-09-14T07:52:16.769Z,79.7
2022-09-14T07:53:26.893Z,80.7
2022-09-14T07:54:37.017Z,80.5
2022-09-14T07:55:47.368Z,79.4
2022-09-14T07:56:57.238Z,79.2
2022-09-14T07:58:07.365Z,79.7
2022-09-14T07:59:17.000Z,79.2
2022-09-14T08:00:27.598Z,80.3
2022-09-14T08:01:37.714Z,83.3
2022-09-14T08:02:47.826Z,80.9
2022-09-14T08:03:56.959Z,79.8
2022-09-14T08:05:07.085Z,80.9
2022-09-14T08:06:17.210Z,79.6
2022-09-14T08:07:27.315Z,78.9
2022-09-14T08:08:37.438Z,80
2022-09-14T08:09:47.562Z,81.6
2022-09-14T08:10:57.666Z,79.5
2022-09-14T08:12:07.799Z,79.2
2022-09-14T08:13:17.905Z,79.4
2022-09-14T08:14:28.026Z,79.2
2022-09-14T08:15:38.386Z,79.7
2022-09-14T08:16:48.259Z,79.7
2022-09-14T08:17:58.387Z,79.9
2022-09-14T08:19:07.523Z,79
2022-09-14T08:20:17.629Z,80.4
2022-09-14T08:21:27.749Z,78.9
2022-09-14T08:22:37.872Z,78.1
2022-09-14T08:23:47.979Z,79
2022-09-14T08:24:58.103Z,80
2022-09-14T08:26:08.213Z,77.5
2022-09-14T08:27:18.337Z,77.4
2022-09-14T08:28:28.458Z,78
2022-09-14T08:29:38.575Z,78
2022-09-14T08:30:48.696Z,78.6
2022-09-14T08:33:08.920Z,78.4
2022-09-14T08:34:18.071Z,78.6
2022-09-14T08:35:28.176Z,78.9
2022-09-14T08:36:38.538Z,77.1
2022-09-14T08:37:48.407Z,77.8
2022-09-14T08:38:58.536Z,79.2
2022-09-14T08:40:08.656Z,78.1
2022-09-14T08:41:18.776Z,76.2
2022-09-14T08:42:28.879Z,75.9
2022-09-14T08:43:39.008Z,76
2022-09-14T08:44:49.131Z,77.7
2022-09-14T08:45:59.238Z,74.2
2022-09-14T08:47:09.356Z,74.5
2022-09-14T08:48:19.473Z,74.2
2022-09-14T08:49:28.609Z,74.4
2022-09-14T08:50:38.737Z,74.3
2022-09-14T08:51:48.841Z,75
2022-09-14T08:52:58.965Z,73.9
2022-09-14T08:54:09.088Z,74.7
2022-09-14T08:55:19.193Z,74.6
2022-09-14T08:56:29.311Z,72.3
2022-09-14T08:57:39.430Z,72.6
2022-09-14T08:58:49.556Z,70.7
2022-09-14T08:59:59.677Z,70.5
2022-09-14T09:01:09.780Z,71.3
2022-09-14T09:02:19.899Z,71.1
2022-09-14T09:03:30.020Z,69.7
2022-09-14T09:04:39.161Z,70.8
2022-09-14T09:05:49.285Z,71
2022-09-14T09:06:59.398Z,72.3
2022-09-14T09:08:09.516Z,71.9
2022-09-14T09:09:19.632Z,71.5
2022-09-14T09:10:29.738Z,72
2022-09-14T09:11:39.859Z,69.3
2022-09-14T09:12:49.984Z,69.9
2022-09-14T09:14:00.105Z,69.6
2022-09-14T09:15:10.000Z,69.5
2022-09-14T09:16:20.345Z,67.9
2022-09-14T09:17:30.699Z,67.1
2022-09-14T09:18:40.577Z,69.4
2022-09-14T09:19:49.710Z,70.3
2022-09-14T09:20:59.815Z,69.2
2022-09-14T09:22:09.938Z,68.2
2022-09-14T09:23:20.063Z,70
2022-09-14T09:24:30.169Z,68.8
2022-09-14T09:25:40.299Z,70
2022-09-14T09:26:50.402Z,68.8
2022-09-14T09:28:00.520Z,68.2
2022-09-14T09:29:10.647Z,69.2
2022-09-14T09:30:20.765Z,68.7
2022-09-14T09:31:30.889Z,69.7
2022-09-14T09:32:41.001Z,69.6
2022-09-14T09:33:51.125Z,69.8
2022-09-14T09:36:10.379Z,68.2
2022-09-14T09:37:20.484Z,69
2022-09-14T09:38:30.603Z,67.8
2022-09-14T09:39:40.713Z,66.2
2022-09-14T09:40:50.835Z,66.1
2022-09-14T09:43:11.086Z,67.8
2022-09-14T09:44:21.191Z,65.5
2022-09-14T09:45:31.305Z,65.3
2022-09-14T09:46:41.428Z,65.8
2022-09-14T09:47:51.557Z,66.3
2022-09-14T09:49:01.666Z,67.9
2022-09-14T09:50:11.046Z,66.6
2022-09-14T09:51:20.914Z,66.5
2022-09-14T09:52:31.036Z,66.8
2022-09-14T09:53:41.146Z,68.6
2022-09-14T09:54:51.270Z,66.9
2022-09-14T09:56:01.391Z,68.1
2022-09-14T09:57:11.500Z,66.6
2022-09-14T09:58:21.625Z,69.8
2022-09-14T09:59:31.744Z,68.6
2022-09-14T10:00:41.865Z,68.8
2022-09-14T10:01:51.979Z,67.7
2022-09-14T10:04:12.223Z,68.7
2022-09-14T10:05:21.340Z,67
2022-09-14T10:06:31.474Z,68.9
2022-09-14T10:07:41.575Z,66.9
2022-09-14T10:08:51.697Z,67.3
2022-09-14T10:10:01.822Z,65.4
2022-09-14T10:11:11.946Z,66.6
2022-09-14T10:12:22.055Z,65.8
2022-09-14T10:13:32.178Z,65.3
2022-09-14T10:15:52.654Z,67.2
2022-09-14T10:17:02.523Z,65.8
2022-09-14T10:18:12.642Z,65.7
2022-09-14T10:19:22.766Z,64.9
2022-09-14T10:20:31.902Z,64.8
2022-09-14T10:21:42.022Z,64.9
2022-09-14T10:22:52.128Z,64
2022-09-14T10:24:02.252Z,63.5
2022-09-14T10:25:12.373Z,63.8
2022-09-14T10:26:22.480Z,65.6
2022-09-14T10:27:32.614Z,61.9
2022-09-14T10:28:42.716Z,62
2022-09-14T10:29:52.847Z,61.1
2022-09-14T10:31:02.952Z,62.1
2022-09-14T10:32:13.074Z,60.4
2022-09-14T10:33:23.196Z,60.2
2022-09-14T10:34:33.309Z,61.5
2022-09-14T10:35:42.452Z,62.8
2022-09-14T10:36:52.565Z,63.7
2022-09-14T10:38:02.689Z,60.6
2022-09-14T10:39:12.794Z,61.3
2022-09-14T10:40:22.913Z,59.8
2022-09-14T10:41:33.039Z,59.1
2022-09-14T10:42:43.142Z,60
2022-09-14T10:43:53.262Z,62.5
2022-09-14T10:45:03.385Z,61.2
2022-09-14T10:46:13.493Z,59.5
2022-09-14T10:47:23.611Z,58.8
2022-09-14T10:48:33.734Z,58.5
2022-09-14T10:49:43.856Z,59.1
2022-09-14T10:50:52.991Z,57.1
2022-09-14T10:52:03.104Z,57.4
2022-09-14T10:53:13.233Z,58.6
2022-09-14T10:54:23.336Z,57.6
2022-09-14T10:55:33.456Z,57.6
2022-09-14T10:56:43.582Z,59.3
2022-09-14T10:57:52.716Z,57
2022-09-14T10:59:02.829Z,58.7
2022-09-14T11:00:12.948Z,57.8
2022-09-14T11:01:23.063Z,58.5
2022-09-14T11:02:33.441Z,60
2022-09-14T11:03:43.311Z,59
2022-09-14T11:04:53.429Z,58.9
2022-09-14T11:06:03.535Z,62
2022-09-14T11:07:13.657Z,60
2022-09-14T11:08:23.764Z,58.7
2022-09-14T11:09:33.883Z,59.3
2022-09-14T11:10:44.014Z,58.7
2022-09-14T11:11:54.132Z,59.4
2022-09-14T11:13:03.268Z,61.6
2022-09-14T11:14:13.369Z,61.9
2022-09-14T11:15:23.498Z,60.2
2022-09-14T11:16:33.604Z,61.8
2022-09-14T11:17:43.726Z,62
2022-09-14T11:18:53.846Z,63.6
2022-09-14T11:21:14.089Z,60.2
2022-09-14T11:22:24.210Z,60.2
2022-09-14T11:23:34.314Z,61.4
2022-09-14T11:24:44.441Z,60
2022-09-14T11:25:54.547Z,60.9
2022-09-14T11:27:04.675Z,60.3
2022-09-14T11:28:13.810Z,62.4
2022-09-14T11:29:23.934Z,63
2022-09-14T11:30:34.042Z,61
2022-09-14T11:31:44.159Z,61
2022-09-14T11:32:54.283Z,60.4
2022-09-14T11:34:04.399Z,60.8
2022-09-14T11:35:14.508Z,59.3
2022-09-14T11:36:24.627Z,58.2
2022-09-14T11:37:34.753Z,58.2
2022-09-14T11:38:44.863Z,57.9
2022-09-14T11:39:54.984Z,58.1
2022-09-14T11:41:05.103Z,58.6
2022-09-14T11:42:15.225Z,58.3
2022-09-14T11:43:24.359Z,59
2022-09-14T11:44:34.467Z,59.6
2022-09-14T11:45:44.595Z,60.5
2022-09-14T11:46:54.717Z,58.8
2022-09-14T11:49:14.940Z,58.5
2022-09-14T11:50:25.066Z,59.8
2022-09-14T11:51:35.172Z,61.4
2022-09-14T11:52:45.534Z,59.7
2022-09-14T11:53:55.416Z,60.9
2022-09-14T11:55:05.537Z,60.3
2022-09-14T11:56:15.660Z,60.7
2022-09-14T11:57:25.778Z,61.6
2022-09-14T11:58:35.144Z,61.2
2022-09-14T11:59:45.021Z,61
2022-09-14T12:00:55.136Z,59.6
2022-09-14T12:02:05.261Z,60.6
2022-09-14T12:03:15.377Z,61.3
2022-09-14T12:04:25.494Z,61.4
2022-09-14T12:05:35.611Z,61.7
2022-09-14T12:06:45.733Z,60
2022-09-14T12:07:55.842Z,61.5
2022-09-14T12:09:05.968Z,60.2
2022-09-14T12:10:16.078Z,60.4
2022-09-14T12:11:26.200Z,60.5
2022-09-14T12:12:36.313Z,60.9
2022-09-14T12:13:45.444Z,60.6
2022-09-14T12:14:55.564Z,60.4
2022-09-14T12:16:05.689Z,62.8
2022-09-14T12:17:15.813Z,60.5
2022-09-14T12:18:25.925Z,60.6
2022-09-14T12:19:36.038Z,63.2
2022-09-14T12:20:46.155Z,61.2
2022-09-14T12:21:56.269Z,61.4
2022-09-14T12:24:16.504Z,62.8
2022-09-14T12:25:26.625Z,61.8
2022-09-14T12:26:36.744Z,61.2
2022-09-14T12:27:46.871Z,62.1
2022-09-14T12:28:56.001Z,61.4
2022-09-14T12:30:06.120Z,61.4
2022-09-14T12:31:16.244Z,62.2
2022-09-14T12:32:26.352Z,62.2
2022-09-14T12:33:36.475Z,61.6
2022-09-14T12:34:46.596Z,62.7
2022-09-14T12:35:56.715Z,62.3
2022-09-14T12:37:06.834Z,61.8
2022-09-14T12:38:16.936Z,63.2
2022-09-14T12:39:27.057Z,63.3
2022-09-14T12:40:37.181Z,62.7
2022-09-14T12:41:47.301Z,63.7
2022-09-14T12:42:57.421Z,63.6
2022-09-14T12:44:06.559Z,64
2022-09-14T12:45:16.661Z,63.7
2022-09-14T12:46:26.781Z,64.7
2022-09-14T12:47:36.907Z,65.6
2022-09-14T12:48:47.027Z,64.7
2022-09-14T12:49:57.147Z,64.7
2022-09-14T12:51:07.252Z,66
2022-09-14T12:52:17.374Z,66.3
2022-09-14T12:53:27.498Z,65.6
2022-09-14T12:54:37.616Z,65.4
2022-09-14T12:55:47.722Z,65.9
2022-09-14T12:56:57.844Z,67.9
2022-09-14T12:58:07.963Z,65.7
2022-09-14T12:59:17.102Z,68.4
2022-09-14T13:00:27.214Z,65
2022-09-14T13:01:37.338Z,64.9
2022-09-14T13:02:47.459Z,65.3
2022-09-14T13:03:57.560Z,66.3
2022-09-14T13:05:07.689Z,65.4
2022-09-14T13:06:17.809Z,65.1
2022-09-14T13:07:27.930Z,64.9
2022-09-14T13:08:38.031Z,65.4
2022-09-14T13:09:48.155Z,67.3
2022-09-14T13:10:58.278Z,66
2022-09-14T13:13:18.509Z,67
2022-09-14T13:14:27.640Z,67.4
2022-09-14T13:15:37.761Z,64.7
2022-09-14T13:16:47.888Z,67.3
2022-09-14T13:17:57.991Z,67.3
2022-09-14T13:20:18.230Z,66.1
2022-09-14T13:21:28.357Z,64.9
2022-09-14T13:22:38.480Z,63.9
2022-09-14T13:23:48.585Z,64.8
2022-09-14T13:24:58.711Z,64.5
2022-09-14T13:26:08.831Z,66.5
2022-09-14T13:27:18.937Z,65.9
2022-09-14T13:28:29.058Z,64.4
2022-09-14T13:29:38.190Z,66.5
2022-09-14T13:30:48.318Z,63
2022-09-14T13:31:58.440Z,62.8
2022-09-14T13:33:08.543Z,63.7
2022-09-14T13:34:18.669Z,64.4
2022-09-14T13:35:28.790Z,62.7
2022-09-14T13:36:38.894Z,64.6
2022-09-14T13:37:49.018Z,65
2022-09-14T13:38:59.145Z,63.5
2022-09-14T13:41:19.379Z,63.1
2022-09-14T13:42:29.493Z,63.1
2022-09-14T13:43:39.610Z,63.9
2022-09-14T13:44:48.744Z,63.7
2022-09-14T13:45:58.865Z,64.1
2022-09-14T13:47:08.988Z,64.3
2022-09-14T13:48:19.090Z,65
2022-09-14T13:49:29.213Z,64.5
2022-09-14T13:50:39.335Z,66.3
2022-09-14T13:51:49.456Z,65.9
2022-09-14T13:52:59.560Z,66.6
2022-09-14T13:54:09.684Z,65.3
2022-09-14T13:55:19.812Z,65.7
2022-09-14T13:56:29.918Z,68.2
2022-09-14T13:57:40.042Z,66.6
2022-09-14T13:58:50.406Z,65.8
2022-09-14T14:00:00.277Z,67.1
2022-09-14T14:01:09.411Z,65.4
2022-09-14T14:02:19.532Z,65.3
2022-09-14T14:03:29.656Z,65.8
2022-09-14T14:04:39.766Z,66.5
2022-09-14T14:05:49.873Z,67.2
2022-09-14T14:06:59.998Z,67.2
2022-09-14T14:08:10.122Z,66
2022-09-14T14:09:20.241Z,66.6
2022-09-14T14:10:30.363Z,66.2
2022-09-14T14:11:40.468Z,66.2
2022-09-14T14:12:50.593Z,65.9
2022-09-14T14:14:00.702Z,66.2
2022-09-14T14:15:10.826Z,67.7
2022-09-14T14:16:19.962Z,67
2022-09-14T14:17:30.080Z,66.8
2022-09-14T14:18:40.202Z,64.6
2022-09-14T14:19:50.311Z,65.4
2022-09-14T14:21:00.437Z,65.2
2022-09-14T14:22:10.555Z,66.2
2022-09-14T14:23:20.662Z,66.9
2022-09-14T14:24:30.784Z,65.9
2022-09-14T14:25:40.905Z,67
2022-09-14T14:26:51.027Z,64.7
2022-09-14T14:28:01.133Z,64.6
2022-09-14T14:29:11.260Z,66.1
2022-09-14T14:30:21.370Z,66.2
2022-09-14T14:31:30.504Z,65
2022-09-14T14:32:40.625Z,65.5
2022-09-14T14:33:50.749Z,65.5
2022-09-14T14:35:00.869Z,65.3
2022-09-14T14:36:10.989Z,65.1
2022-09-14T14:37:21.090Z,65.8
2022-09-14T14:38:31.219Z,66.4
2022-09-14T14:39:41.340Z,67
2022-09-14T14:40:51.457Z,66.5
2022-09-14T14:42:01.812Z,66.9
2022-09-14T14:43:11.693Z,66.7
2022-09-14T14:44:21.796Z,66.6
2022-09-14T14:45:31.918Z,66.9
2022-09-14T14:46:41.051Z,66.8
2022-09-14T14:47:51.173Z,68.1
2022-09-14T14:49:01.294Z,67.5
2022-09-14T14:50:11.411Z,68.3
2022-09-14T14:51:21.533Z,67.4
2022-09-14T14:52:30.668Z,67.9
2022-09-14T14:53:40.794Z,67.5
2022-09-14T14:54:50.913Z,67.8
2022-09-14T14:56:01.019Z,68.1
2022-09-14T14:57:11.141Z,69.7
2022-09-14T14:58:21.495Z,70
2022-09-14T14:59:31.372Z,68.1
2022-09-14T15:00:41.497Z,68.7
2022-09-14T15:01:51.847Z,67.3
2022-09-14T15:03:01.722Z,67.9
2022-09-14T15:04:11.841Z,68.1
2022-09-14T15:05:22.210Z,69.1
2022-09-14T15:06:32.074Z,67.4
2022-09-14T15:07:41.212Z,67.2
2022-09-14T15:08:51.337Z,68.8
2022-09-14T15:10:01.453Z,68.9
2022-09-14T15:11:11.569Z,68.5
2022-09-14T15:12:21.683Z,66.7
2022-09-14T15:13:31.809Z,67.6
2022-09-14T15:14:41.932Z,63.8
2022-09-14T15:15:52.035Z,61.9
2022-09-14T15:17:02.163Z,61
2022-09-14T15:18:12.286Z,60.5
2022-09-14T15:19:22.390Z,62.4
2022-09-14T15:20:32.513Z,62
2022-09-14T15:21:42.634Z,61.8
2022-09-14T15:22:51.763Z,63.3
2022-09-14T15:24:01.892Z,65
2022-09-14T15:25:12.000Z,64.8
2022-09-14T15:26:22.120Z,65.6
2022-09-14T15:27:32.235Z,65
2022-09-14T15:28:42.362Z,66.4
2022-09-14T15:29:52.464Z,66.7
2022-09-14T15:31:02.583Z,66.6
2022-09-14T15:32:12.706Z,66.8
2022-09-14T15:33:22.830Z,67.5
2022-09-14T15:34:32.954Z,69.5
2022-09-14T15:35:43.066Z,69.3
2022-09-14T15:36:53.184Z,69.7
2022-09-14T15:38:02.309Z,69.1
2022-09-14T15:40:22.541Z,68.1
2022-09-14T15:41:32.670Z,68.7
2022-09-14T15:42:42.790Z,68.4
2022-09-14T15:43:52.912Z,69.7
2022-09-14T15:45:03.019Z,70.6
2022-09-14T15:46:13.142Z,71.9
2022-09-14T15:47:23.267Z,69.9
2022-09-14T15:48:33.375Z,69
2022-09-14T15:49:43.500Z,70.7
2022-09-14T15:50:53.606Z,70.6
2022-09-14T15:52:03.735Z,69.2
2022-09-14T15:53:12.872Z,69.3
2022-09-14T15:54:22.975Z,69.5
2022-09-14T15:55:33.099Z,69.6
2022-09-14T15:56:43.225Z,69.9
2022-09-14T15:57:53.327Z,69.6
2022-09-14T15:59:03.451Z,71.6
2022-09-14T16:00:13.580Z,70.8
2022-09-14T16:01:23.696Z,72.8
2022-09-14T16:02:33.812Z,73.4
2022-09-14T16:03:43.933Z,72.3
2022-09-14T16:04:54.291Z,73.1
2022-09-14T16:06:04.164Z,71.7